createdAt,value
2022-11-17T00:01:53.117Z,3.38
2022-11-17T00:04:22.723Z,4.07
2022-11-17T00:06:51.164Z,3.47
2022-11-17T00:09:19.368Z,3.63
2022-11-17T00:12:06.088Z,3.94
2022-11-17T00:14:36.649Z,3.61
2022-11-17T00:17:07.102Z,4.10
2022-11-17T00:19:54.479Z,4.14
2022-11-17T00:22:23.166Z,4.03
2022-11-17T00:24:51.433Z,4.11
2022-11-17T00:27:19.921Z,4.06
2022-11-17T00:29:47.910Z,4.11
2022-11-17T00:32:34.910Z,4.12
2022-11-17T00:35:05.656Z,4.17
2022-11-17T00:37:36.705Z,3.76
2022-11-17T00:40:05.701Z,3.33
2022-11-17T00:42:34.225Z,3.61
2022-11-17T00:45:02.337Z,3.75
2022-11-17T00:47:30.868Z,3.81
2022-11-17T00:49:58.959Z,3.42
2022-11-17T00:52:28.698Z,3.87
2022-11-17T00:54:56.797Z,3.79
2022-11-17T00:57:25.261Z,3.58
2022-11-17T00:59:53.341Z,2.98
2022-11-17T01:02:21.802Z,2.61
2022-11-17T01:04:49.876Z,2.09
2022-11-17T01:07:18.281Z,2.55
2022-11-17T01:09:47.796Z,3.06
2022-11-17T01:12:16.344Z,2.73
2022-11-17T01:14:44.630Z,2.89
2022-11-17T01:17:13.141Z,2.81
2022-11-17T01:19:41.282Z,2.18
2022-11-17T01:22:09.736Z,2.76
2022-11-17T01:24:37.825Z,2.24
2022-11-17T01:27:07.770Z,2.64
2022-11-17T01:29:35.971Z,2.12
2022-11-17T01:32:04.392Z,2.05
2022-11-17T01:34:32.671Z,2.54
2022-11-17T01:37:18.496Z,2.54
2022-11-17T01:39:46.792Z,2.48
2022-11-17T01:42:18.409Z,2.57
2022-11-17T01:45:05.333Z,2.69
2022-11-17T01:47:37.859Z,2.77
2022-11-17T01:50:09.739Z,3.22
2022-11-17T01:52:39.265Z,2.86
2022-11-17T01:55:08.662Z,2.65
2022-11-17T01:57:42.021Z,3.53
2022-11-17T02:00:12.621Z,3.19
2022-11-17T02:02:42.167Z,2.73
2022-11-17T02:05:19.880Z,3.50
2022-11-17T02:07:48.628Z,3.00
2022-11-17T02:10:17.167Z,3.17
2022-11-17T02:12:47.125Z,3.39
2022-11-17T02:15:15.278Z,3.07
2022-11-17T02:17:44.425Z,3.39
2022-11-17T02:20:15.103Z,3.57
2022-11-17T02:22:57.536Z,4.13
2022-11-17T02:25:39.335Z,3.57
2022-11-17T02:28:14.583Z,3.83
2022-11-17T02:30:49.157Z,4.19
2022-11-17T02:33:27.135Z,3.46
2022-11-17T02:36:00.108Z,3.57
2022-11-17T02:38:32.777Z,3.27
2022-11-17T02:41:06.539Z,3.69
2022-11-17T02:43:58.150Z,3.60
2022-11-17T02:46:26.987Z,3.58
2022-11-17T02:48:57.952Z,2.73
2022-11-17T02:51:26.414Z,3.20
2022-11-17T02:53:56.214Z,3.38
2022-11-17T02:56:24.298Z,2.58
2022-11-17T02:58:56.179Z,2.72
2022-11-17T03:01:37.117Z,2.77
2022-11-17T03:04:23.084Z,2.92
2022-11-17T03:06:58.713Z,3.19
2022-11-17T03:09:34.178Z,2.94
2022-11-17T03:12:07.876Z,2.89
2022-11-17T03:14:43.901Z,3.18
2022-11-17T03:17:15.232Z,3.15
2022-11-17T03:19:46.280Z,3.27
2022-11-17T03:22:17.878Z,3.48
2022-11-17T03:24:49.276Z,3.61
2022-11-17T03:27:20.745Z,2.93
2022-11-17T03:29:52.274Z,3.27
2022-11-17T03:32:20.565Z,2.97
2022-11-17T03:34:52.111Z,2.82
2022-11-17T03:37:20.993Z,2.65
2022-11-17T03:39:51.935Z,3.00
2022-11-17T03:42:23.515Z,3.40
2022-11-17T03:44:57.088Z,3.40
2022-11-17T03:47:27.117Z,2.94
2022-11-17T03:49:59.677Z,2.99
2022-11-17T03:52:29.842Z,2.34
2022-11-17T03:54:58.316Z,2.22
2022-11-17T03:57:30.557Z,2.88
2022-11-17T04:00:02.334Z,3.26
2022-11-17T04:02:30.490Z,2.32
2022-11-17T04:05:07.515Z,2.63
2022-11-17T04:07:37.343Z,2.57
2022-11-17T04:10:06.882Z,2.87
2022-11-17T04:12:52.394Z,2.73
2022-11-17T04:15:40.298Z,3.22
2022-11-17T04:18:08.384Z,2.65
2022-11-17T04:20:37.023Z,2.76
2022-11-17T04:23:08.463Z,2.90
2022-11-17T04:25:54.626Z,2.64
2022-11-17T04:28:38.570Z,2.53
2022-11-17T04:31:10.800Z,2.68
2022-11-17T04:33:40.230Z,2.81
2022-11-17T04:36:09.459Z,2.63
2022-11-17T04:38:37.589Z,2.52
2022-11-17T04:41:25.517Z,2.70
2022-11-17T04:43:54.576Z,2.27
2022-11-17T04:46:24.809Z,2.35
2022-11-17T04:48:53.926Z,2.64
2022-11-17T04:51:22.668Z,2.65
2022-11-17T04:53:51.023Z,2.99
2022-11-17T04:56:20.489Z,2.79
2022-11-17T04:58:48.916Z,2.41
2022-11-17T05:01:18.209Z,2.90
2022-11-17T05:03:49.408Z,2.83
2022-11-17T05:06:19.999Z,3.27
2022-11-17T05:08:48.680Z,2.42
2022-11-17T05:11:35.889Z,2.27
2022-11-17T05:14:04.274Z,2.88
2022-11-17T05:16:50.477Z,2.70
2022-11-17T05:19:21.402Z,2.78
2022-11-17T05:21:50.548Z,2.33
2022-11-17T05:24:18.230Z,2.30
2022-11-17T05:26:48.031Z,2.95
2022-11-17T05:29:17.502Z,2.85
2022-11-17T05:31:46.604Z,3.03
2022-11-17T05:34:17.421Z,3.21
2022-11-17T05:36:47.615Z,3.12
2022-11-17T05:39:16.438Z,2.68
2022-11-17T05:41:44.822Z,1.71
2022-11-17T05:44:13.050Z,2.40
2022-11-17T05:46:41.315Z,1.21
2022-11-17T05:49:09.585Z,2.02
2022-11-17T05:51:38.718Z,2.13
2022-11-17T05:54:08.344Z,2.82
2022-11-17T05:56:40.439Z,2.44
2022-11-17T05:59:17.412Z,3.09
2022-11-17T06:01:49.825Z,2.39
2022-11-17T06:04:19.702Z,2.61
2022-11-17T06:06:49.401Z,2.14
2022-11-17T06:09:19.016Z,2.60
2022-11-17T06:11:47.378Z,2.55
2022-11-17T06:14:15.722Z,2.08
2022-11-17T06:16:46.045Z,2.96
2022-11-17T06:19:18.117Z,2.53
2022-11-17T06:22:10.736Z,1.74
2022-11-17T06:24:36.119Z,2.20
2022-11-17T06:27:05.520Z,2.54
2022-11-17T06:29:36.112Z,2.17
2022-11-17T06:32:06.902Z,2.63
2022-11-17T06:34:35.129Z,2.04
2022-11-17T06:37:03.628Z,1.71
2022-11-17T06:39:31.847Z,1.90
2022-11-17T06:42:01.761Z,2.41
2022-11-17T06:44:29.863Z,2.24
2022-11-17T06:46:58.227Z,1.96
2022-11-17T06:49:26.415Z,2.51
2022-11-17T06:51:55.406Z,2.51
2022-11-17T06:54:23.545Z,1.84
2022-11-17T06:56:52.684Z,1.32
2022-11-17T06:59:22.140Z,1.62
2022-11-17T07:01:50.627Z,1.57
2022-11-17T07:04:18.704Z,0.95
2022-11-17T07:06:47.112Z,1.36
2022-11-17T07:09:15.170Z,1.34
2022-11-17T07:11:43.531Z,1.11
2022-11-17T07:14:11.583Z,1.40
2022-11-17T07:16:42.849Z,1.46
2022-11-17T07:19:11.036Z,1.63
2022-11-17T07:21:39.418Z,1.01
2022-11-17T07:24:08.244Z,0.90
2022-11-17T07:26:36.683Z,0.83
2022-11-17T07:29:05.101Z,1.46
2022-11-17T07:31:35.720Z,1.34
2022-11-17T07:34:05.267Z,1.48
2022-11-17T07:36:34.659Z,1.41
2022-11-17T07:39:02.776Z,1.64
2022-11-17T07:41:32.204Z,1.64
2022-11-17T07:44:00.622Z,1.52
2022-11-17T07:46:29.087Z,1.72
2022-11-17T07:48:57.225Z,1.22
2022-11-17T07:51:26.572Z,1.73
2022-11-17T07:53:55.103Z,1.26
2022-11-17T07:56:23.166Z,1.34
2022-11-17T07:58:51.587Z,1.86
2022-11-17T08:01:19.724Z,1.02
2022-11-17T08:03:48.340Z,1.84
2022-11-17T08:06:16.997Z,1.49
2022-11-17T08:08:48.529Z,1.59
2022-11-17T08:11:16.759Z,1.42
2022-11-17T08:13:45.124Z,1.60
2022-11-17T08:16:13.542Z,1.33
2022-11-17T08:18:44.900Z,1.94
2022-11-17T08:21:16.137Z,2.52
2022-11-17T08:23:46.217Z,2.08
2022-11-17T08:26:14.465Z,1.96
2022-11-17T08:28:43.013Z,2.02
2022-11-17T08:31:11.130Z,2.31
2022-11-17T08:33:39.493Z,2.16
2022-11-17T08:36:08.307Z,1.75
2022-11-17T08:38:37.394Z,1.98
2022-11-17T08:41:08.965Z,1.98
2022-11-17T08:43:37.359Z,1.51
2022-11-17T08:46:06.069Z,2.02
2022-11-17T08:48:34.930Z,2.30
2022-11-17T08:51:06.379Z,2.47
2022-11-17T08:53:35.088Z,1.66
2022-11-17T08:56:03.197Z,1.82
2022-11-17T08:58:33.004Z,2.44
2022-11-17T09:01:05.285Z,2.29
2022-11-17T09:03:34.201Z,1.96
2022-11-17T09:06:03.050Z,2.26
2022-11-17T09:08:56.028Z,2.15
2022-11-17T09:11:20.282Z,2.20
2022-11-17T09:13:50.031Z,2.72
2022-11-17T09:16:19.604Z,2.15
2022-11-17T09:18:48.167Z,1.85
2022-11-17T09:21:17.326Z,2.23
2022-11-17T09:23:45.903Z,1.28
2022-11-17T09:26:14.863Z,1.62
2022-11-17T09:28:44.156Z,1.39
2022-11-17T09:31:15.305Z,1.67
2022-11-17T09:33:44.510Z,1.63
2022-11-17T09:36:13.699Z,2.17
2022-11-17T09:38:42.255Z,1.75
2022-11-17T09:41:22.674Z,2.31
2022-11-17T09:43:55.795Z,2.15
2022-11-17T09:46:29.118Z,1.79
2022-11-17T09:49:00.861Z,2.42
2022-11-17T09:51:31.080Z,2.72
2022-11-17T09:54:04.452Z,2.81
2022-11-17T09:56:32.798Z,2.59
2022-11-17T09:59:04.351Z,2.40
2022-11-17T10:01:33.862Z,1.96
2022-11-17T10:04:02.185Z,1.76
2022-11-17T10:06:32.031Z,2.38
2022-11-17T10:09:04.004Z,2.00
2022-11-17T10:11:35.040Z,1.81
2022-11-17T10:14:04.340Z,2.89
2022-11-17T10:16:34.034Z,2.01
2022-11-17T10:19:03.391Z,2.18
2022-11-17T10:21:31.747Z,1.46
2022-11-17T10:24:00.644Z,1.61
2022-11-17T10:26:28.943Z,1.77
2022-11-17T10:29:08.711Z,2.33
2022-11-17T10:31:47.029Z,2.73
2022-11-17T10:34:36.979Z,2.64
2022-11-17T10:37:28.660Z,3.11
2022-11-17T10:40:25.114Z,2.62
2022-11-17T10:43:18.139Z,2.41
2022-11-17T10:45:47.067Z,2.49
2022-11-17T10:48:26.379Z,2.63
2022-11-17T10:50:56.307Z,2.38
2022-11-17T10:53:27.416Z,2.61
2022-11-17T10:55:56.412Z,2.35
2022-11-17T10:58:26.970Z,1.96
2022-11-17T11:00:56.875Z,2.09
2022-11-17T11:03:29.034Z,2.52
2022-11-17T11:06:24.182Z,3.21
2022-11-17T11:08:56.657Z,2.90
2022-11-17T11:11:42.403Z,2.41
2022-11-17T11:14:17.255Z,1.74
2022-11-17T11:16:48.496Z,2.10
2022-11-17T11:19:20.585Z,2.02
2022-11-17T11:22:12.433Z,2.59
2022-11-17T11:24:46.779Z,2.96
2022-11-17T11:27:27.891Z,2.23
2022-11-17T11:30:03.201Z,2.62
2022-11-17T11:32:44.214Z,1.96
2022-11-17T11:35:56.310Z,2.90
2022-11-17T11:38:34.277Z,2.31
2022-11-17T11:41:13.169Z,2.04
2022-11-17T11:43:50.660Z,2.04
2022-11-17T11:46:20.085Z,2.22
2022-11-17T11:48:49.536Z,2.08
2022-11-17T11:51:20.474Z,2.20
2022-11-17T11:53:52.135Z,2.43
2022-11-17T11:56:20.914Z,3.52
2022-11-17T11:58:54.563Z,3.28
2022-11-17T12:01:24.031Z,2.95
2022-11-17T12:03:59.593Z,3.00
2022-11-17T12:06:44.314Z,2.31
2022-11-17T12:09:25.317Z,2.84
2022-11-17T12:12:03.129Z,2.17
2022-11-17T12:14:33.237Z,1.66
2022-11-17T12:17:07.569Z,2.26
2022-11-17T12:19:55.418Z,2.74
2022-11-17T12:22:56.130Z,2.44
2022-11-17T12:25:29.402Z,1.87
2022-11-17T12:27:57.702Z,1.28
2022-11-17T12:30:51.791Z,1.94
2022-11-17T12:33:20.374Z,1.07
2022-11-17T12:36:31.134Z,1.91
2022-11-17T12:39:01.974Z,2.60
2022-11-17T12:42:05.366Z,2.33
2022-11-17T12:44:44.730Z,2.14
2022-11-17T12:47:16.296Z,2.04
2022-11-17T12:49:45.655Z,2.57
2022-11-17T12:52:17.532Z,1.87
2022-11-17T12:54:57.580Z,1.93
2022-11-17T12:57:28.829Z,1.51
2022-11-17T13:00:10.200Z,1.42
2022-11-17T13:02:57.730Z,1.76
2022-11-17T13:05:27.340Z,1.39
2022-11-17T13:08:12.881Z,1.80
2022-11-17T13:10:42.924Z,2.35
2022-11-17T13:13:12.782Z,1.34
2022-11-17T13:15:42.455Z,1.89
2022-11-17T13:18:20.301Z,1.93
2022-11-17T13:20:49.862Z,1.41
2022-11-17T13:23:22.198Z,2.43
2022-11-17T13:25:52.117Z,2.09
2022-11-17T13:28:31.016Z,1.53
2022-11-17T13:31:00.393Z,0.79
2022-11-17T13:33:29.753Z,1.25
2022-11-17T13:36:09.491Z,1.81
2022-11-17T13:38:38.054Z,1.28
2022-11-17T13:41:07.931Z,1.78
2022-11-17T13:43:39.722Z,2.19
2022-11-17T13:46:08.159Z,1.94
2022-11-17T13:48:37.965Z,1.63
2022-11-17T13:51:23.066Z,1.24
2022-11-17T13:53:52.702Z,1.15
2022-11-17T13:56:27.575Z,1.65
2022-11-17T13:58:56.285Z,1.15
2022-11-17T14:01:28.604Z,1.49
2022-11-17T14:04:19.817Z,1.48
2022-11-17T14:07:00.682Z,1.49
2022-11-17T14:09:30.884Z,0.50
2022-11-17T14:12:00.504Z,0.64
2022-11-17T14:14:33.868Z,0.96
2022-11-17T14:17:12.443Z,1.41
2022-11-17T14:19:40.958Z,1.89
2022-11-17T14:22:30.926Z,2.03
2022-11-17T14:25:00.542Z,1.67
2022-11-17T14:27:41.435Z,1.44
2022-11-17T14:30:13.260Z,1.27
2022-11-17T14:32:41.439Z,0.38
2022-11-17T14:35:13.992Z,1.24
2022-11-17T14:37:42.716Z,1.23
2022-11-17T14:40:14.875Z,1.42
2022-11-17T14:42:44.695Z,1.87
2022-11-17T14:45:16.897Z,1.39
2022-11-17T14:47:45.336Z,0.99
2022-11-17T14:50:14.918Z,1.64
2022-11-17T14:52:43.861Z,1.02
2022-11-17T14:55:12.871Z,0.03
2022-11-17T14:57:41.412Z,0.65
2022-11-17T15:00:18.855Z,0.33
2022-11-17T15:02:48.807Z,0.53
2022-11-17T15:05:17.374Z,0.09
2022-11-17T15:07:45.478Z,0.66
2022-11-17T15:10:13.897Z,0.45
2022-11-17T15:12:42.063Z,0.71
2022-11-17T15:15:12.703Z,0.86
2022-11-17T15:17:40.818Z,0.34
2022-11-17T15:20:10.563Z,0.86
2022-11-17T15:22:39.952Z,0.52
2022-11-17T15:25:09.743Z,0.77
2022-11-17T15:27:37.892Z,0.44
2022-11-17T15:30:07.658Z,0.94
2022-11-17T15:32:37.615Z,0.32
2022-11-17T15:35:06.766Z,0.71
2022-11-17T15:37:34.848Z,0.72
2022-11-17T15:40:03.319Z,0.95
2022-11-17T15:42:31.467Z,0.97
2022-11-17T15:44:59.867Z,0.69
2022-11-17T15:47:27.926Z,0.84
2022-11-17T15:49:58.707Z,0.54
2022-11-17T15:52:48.768Z,1.16
2022-11-17T15:55:15.669Z,0.78
2022-11-17T15:57:43.824Z,0.59
2022-11-17T16:00:13.519Z,0.77
2022-11-17T16:02:42.167Z,0.95
2022-11-17T16:05:12.120Z,0.77
2022-11-17T16:07:40.339Z,0.56
2022-11-17T16:10:09.661Z,1.32
2022-11-17T16:12:37.809Z,0.95
2022-11-17T16:15:09.602Z,1.17
2022-11-17T16:17:37.808Z,0.53
2022-11-17T16:20:07.424Z,0.73
2022-11-17T16:22:37.096Z,1.37
2022-11-17T16:25:07.520Z,1.40
2022-11-17T16:27:35.842Z,0.45
2022-11-17T16:30:05.164Z,0.53
2022-11-17T16:32:33.363Z,0.61
2022-11-17T16:35:01.765Z,0.99
2022-11-17T16:37:30.022Z,1.24
2022-11-17T16:40:01.501Z,1.63
2022-11-17T16:42:29.859Z,1.67
2022-11-17T16:44:58.598Z,1.63
2022-11-17T16:47:26.718Z,1.60
2022-11-17T16:49:55.302Z,1.65
2022-11-17T16:52:23.599Z,1.08
2022-11-17T16:54:52.289Z,1.17
2022-11-17T16:57:22.028Z,0.69
2022-11-17T16:59:50.408Z,1.27
2022-11-17T17:02:18.589Z,1.11
2022-11-17T17:04:47.113Z,1.14
2022-11-17T17:07:15.437Z,1.14
2022-11-17T17:09:43.945Z,0.95
2022-11-17T17:12:12.341Z,1.25
2022-11-17T17:14:42.145Z,1.41
2022-11-17T17:17:10.301Z,1.30
2022-11-17T17:19:38.608Z,1.38
2022-11-17T17:22:07.023Z,1.98
2022-11-17T17:24:35.530Z,1.89
2022-11-17T17:27:05.146Z,1.82
2022-11-17T17:29:33.751Z,1.69
2022-11-17T17:32:03.869Z,2.48
2022-11-17T17:34:32.563Z,1.99
2022-11-17T17:37:01.099Z,1.42
2022-11-17T17:39:29.761Z,1.28
2022-11-17T17:41:58.122Z,1.44
2022-11-17T17:44:26.757Z,1.67
2022-11-17T17:46:57.403Z,1.85
2022-11-17T17:49:27.174Z,1.94
2022-11-17T17:51:55.593Z,1.70
2022-11-17T17:54:25.431Z,1.45
2022-11-17T17:56:54.033Z,1.73
2022-11-17T17:59:22.460Z,1.23
2022-11-17T18:01:51.565Z,1.25
2022-11-17T18:04:19.997Z,1.59
2022-11-17T18:06:49.691Z,1.77
2022-11-17T18:09:20.436Z,2.07
2022-11-17T18:11:50.573Z,1.34
2022-11-17T18:14:22.570Z,1.16
2022-11-17T18:16:51.158Z,1.25
2022-11-17T18:19:20.233Z,1.05
2022-11-17T18:21:49.776Z,1.37
2022-11-17T18:24:18.360Z,1.07
2022-11-17T18:26:46.591Z,0.73
2022-11-17T18:29:18.504Z,0.69
2022-11-17T18:31:47.751Z,0.55
2022-11-17T18:34:18.854Z,0.94
2022-11-17T18:36:47.073Z,0.59
2022-11-17T18:39:17.399Z,0.72
2022-11-17T18:41:45.840Z,0.78
2022-11-17T18:44:14.520Z,0.95
2022-11-17T18:46:42.755Z,0.91
2022-11-17T18:49:11.512Z,0.62
2022-11-17T18:51:39.765Z,1.08
2022-11-17T18:54:08.954Z,0.89
2022-11-17T18:56:39.020Z,1.21
2022-11-17T18:59:11.697Z,1.16
2022-11-17T19:01:45.406Z,0.72
2022-11-17T19:04:14.969Z,0.67
2022-11-17T19:06:43.234Z,1.15
2022-11-17T19:09:14.063Z,1.02
2022-11-17T19:11:43.878Z,1.49
2022-11-17T19:14:12.496Z,1.46
2022-11-17T19:16:44.949Z,1.62
2022-11-17T19:19:15.319Z,1.11
2022-11-17T19:21:44.278Z,1.41
2022-11-17T19:24:12.949Z,1.37
2022-11-17T19:26:41.156Z,1.14
2022-11-17T19:29:16.846Z,1.20
2022-11-17T19:31:46.085Z,0.91
2022-11-17T19:34:15.134Z,0.69
2022-11-17T19:36:44.618Z,0.84
2022-11-17T19:39:14.644Z,1.20
2022-11-17T19:41:47.889Z,0.92
2022-11-17T19:44:17.735Z,1.43
2022-11-17T19:46:45.898Z,0.97
2022-11-17T19:49:14.596Z,0.67
2022-11-17T19:51:43.137Z,1.12
2022-11-17T19:54:13.420Z,0.94
2022-11-17T19:56:41.680Z,0.94
2022-11-17T19:59:15.601Z,1.15
2022-11-17T20:01:46.890Z,1.84
2022-11-17T20:04:15.499Z,1.26
2022-11-17T20:06:43.762Z,1.33
2022-11-17T20:09:14.247Z,1.40
2022-11-17T20:11:42.866Z,0.81
2022-11-17T20:14:11.509Z,1.22
2022-11-17T20:16:39.589Z,1.21
2022-11-17T20:19:10.308Z,1.25
2022-11-17T20:21:38.457Z,1.24
2022-11-17T20:24:07.312Z,1.49
2022-11-17T20:26:36.361Z,1.35
2022-11-17T20:29:05.052Z,1.52
2022-11-17T20:31:35.372Z,2.18
2022-11-17T20:34:05.692Z,2.22
2022-11-17T20:36:35.741Z,2.10
2022-11-17T20:39:05.769Z,1.30
2022-11-17T20:41:34.088Z,1.73
2022-11-17T20:44:03.421Z,2.04
2022-11-17T20:46:32.002Z,1.60
2022-11-17T20:49:00.462Z,1.43
2022-11-17T20:51:28.611Z,1.18
2022-11-17T20:53:58.414Z,1.41
2022-11-17T20:56:26.620Z,1.15
2022-11-17T20:58:55.104Z,0.75
2022-11-17T21:01:24.178Z,0.68
2022-11-17T21:03:52.780Z,1.07
2022-11-17T21:06:23.162Z,0.76
2022-11-17T21:08:51.911Z,0.63
2022-11-17T21:11:40.920Z,0.96
2022-11-17T21:14:11.542Z,1.20
2022-11-17T21:16:41.444Z,1.09
2022-11-17T21:19:10.196Z,1.12
2022-11-17T21:21:38.404Z,0.10
2022-11-17T21:24:07.442Z,0.70
2022-11-17T21:26:37.267Z,1.39
2022-11-17T21:29:06.907Z,0.74
2022-11-17T21:31:35.753Z,1.05
2022-11-17T21:34:06.359Z,0.84
2022-11-17T21:36:35.654Z,1.15
2022-11-17T21:39:04.723Z,1.30
2022-11-17T21:41:35.433Z,0.98
2022-11-17T21:44:05.677Z,0.97
2022-11-17T21:46:35.113Z,1.46
2022-11-17T21:49:03.851Z,0.99
2022-11-17T21:51:33.460Z,1.59
2022-11-17T21:54:03.813Z,2.06
2022-11-17T21:56:32.280Z,1.58
2022-11-17T21:59:01.981Z,1.32
2022-11-17T22:01:32.166Z,1.65
2022-11-17T22:04:00.695Z,0.88
2022-11-17T22:06:28.949Z,1.29
2022-11-17T22:08:57.922Z,1.52
2022-11-17T22:11:37.047Z,1.47
2022-11-17T22:14:09.228Z,1.93
2022-11-17T22:16:39.991Z,1.38
2022-11-17T22:19:09.053Z,0.65
2022-11-17T22:21:37.869Z,0.79
2022-11-17T22:24:07.925Z,1.49
2022-11-17T22:26:38.369Z,1.40
2022-11-17T22:29:08.390Z,1.26
2022-11-17T22:31:38.196Z,0.88
2022-11-17T22:34:06.704Z,1.31
2022-11-17T22:36:34.807Z,1.67
2022-11-17T22:39:03.201Z,1.14
2022-11-17T22:41:31.457Z,0.85
2022-11-17T22:44:00.491Z,0.91
2022-11-17T22:46:29.765Z,1.15
2022-11-17T22:49:02.160Z,1.37
2022-11-17T22:51:47.967Z,1.34
2022-11-17T22:54:16.323Z,0.68
2022-11-17T22:56:44.579Z,0.65
2022-11-17T22:59:13.057Z,0.81
2022-11-17T23:01:41.266Z,1.09
2022-11-17T23:04:12.689Z,1.36
2022-11-17T23:06:40.779Z,1.22
2022-11-17T23:09:09.508Z,1.50
2022-11-17T23:11:38.635Z,1.54
2022-11-17T23:14:08.554Z,1.40
2022-11-17T23:16:36.848Z,1.10
2022-11-17T23:19:06.136Z,1.35
2022-11-17T23:21:35.533Z,1.68
2022-11-17T23:24:05.190Z,0.95
2022-11-17T23:26:33.323Z,0.48
2022-11-17T23:29:01.888Z,0.94
2022-11-17T23:31:30.383Z,1.11
2022-11-17T23:33:58.894Z,0.95
2022-11-17T23:36:26.869Z,1.01
2022-11-17T23:38:57.820Z,1.69
2022-11-17T23:41:25.936Z,0.68
2022-11-17T23:43:55.250Z,1.29
2022-11-17T23:46:25.069Z,0.94
2022-11-17T23:48:54.076Z,1.43
2022-11-17T23:51:23.483Z,1.76
2022-11-17T23:53:52.165Z,1.56
2022-11-17T23:56:21.630Z,2.09
2022-11-17T23:58:50.550Z,1.30
